Time;durP1;ratioP1;P1;durP2;ratioP2;P2;SDS_P1;SDS_P2;PMS_P1;PMS_P2;Temp;Humidity;BMP_temperature;BMP_pressure;BME280_temperature;BME280_humidity;BME280_pressure;Samples;Min_cycle;Max_cycle;Signal;HPM_P1;HPM_P2
2022/06/05 00:01:41;;;;;;;10.40;9.53;;;20.30;99.90;;;;;;5054132;28;20448;-70
2022/06/05 00:04:19;;;;;;;12.60;11.40;;;20.30;99.90;;;;;;5053790;28;20507;-70
2022/06/05 00:06:55;;;;;;;12.30;11.20;;;20.30;99.90;;;;;;5054123;28;20815;-70
2022/06/05 00:09:34;;;;;;;11.90;10.90;;;20.30;99.90;;;;;;5053787;28;20464;-70
2022/06/05 00:12:05;;;;;;;12.40;11.30;;;20.30;99.90;;;;;;5053749;28;20444;-70
2022/06/05 00:14:32;;;;;;;12.70;11.70;;;20.30;99.90;;;;;;5053803;28;20476;-70
2022/06/05 00:17:01;;;;;;;11.50;10.40;;;20.30;99.90;;;;;;5053771;28;20477;-70
2022/06/05 00:19:30;;;;;;;11.53;10.53;;;20.30;99.90;;;;;;5053748;28;20509;-70
2022/06/05 00:21:57;;;;;;;11.40;10.40;;;20.30;99.90;;;;;;5053531;28;20975;-70
2022/06/05 00:24:24;;;;;;;11.83;10.77;;;20.30;99.90;;;;;;5053553;28;20512;-70
2022/06/05 00:26:56;;;;;;;11.63;10.63;;;20.30;99.90;;;;;;5053531;28;20476;-70
2022/06/05 00:29:36;;;;;;;11.40;10.40;;;20.30;99.90;;;;;;5053737;28;20547;-70
2022/06/05 00:32:11;;;;;;;11.47;10.50;;;20.30;99.90;;;;;;5053729;28;20467;-70
2022/06/05 00:34:39;;;;;;;11.90;10.87;;;20.30;99.90;;;;;;5053651;28;20480;-70
2022/06/05 00:37:18;;;;;;;11.40;10.47;;;20.30;99.90;;;;;;5053354;28;20452;-70
2022/06/05 00:39:55;;;;;;;12.07;11.07;;;20.20;99.90;;;;;;5053662;28;20500;-70
2022/06/05 00:42:26;;;;;;;13.20;12.00;;;20.20;99.90;;;;;;5053423;28;20471;-70
2022/06/05 00:44:56;;;;;;;13.43;12.33;;;20.00;99.90;;;;;;5053412;28;20522;-70
2022/06/05 00:47:27;;;;;;;13.30;12.10;;;20.10;99.90;;;;;;5053266;28;20440;-70
2022/06/05 00:49:59;;;;;;;12.97;11.87;;;20.10;99.90;;;;;;5053497;28;20499;-70
2022/06/05 00:52:30;;;;;;;11.77;10.80;;;20.10;99.90;;;;;;5053196;28;20829;-71
2022/06/05 00:54:57;;;;;;;12.40;11.30;;;20.10;99.90;;;;;;5053400;28;20990;-70
2022/06/05 00:57:29;;;;;;;13.20;12.10;;;20.10;99.90;;;;;;5053293;28;20481;-70
2022/06/05 00:59:56;;;;;;;12.87;11.67;;;20.10;99.90;;;;;;5053410;28;20509;-70
2022/06/05 01:02:24;;;;;;;13.00;11.90;;;20.10;99.90;;;;;;5052977;28;20555;-70
2022/06/05 01:04:52;;;;;;;12.33;11.27;;;20.10;99.90;;;;;;5053106;28;20516;-70
2022/06/05 01:07:20;;;;;;;13.30;12.10;;;20.10;99.90;;;;;;5053326;28;20480;-70
2022/06/05 01:09:50;;;;;;;12.80;11.70;;;20.10;99.90;;;;;;5053157;28;20529;-70
2022/06/05 01:12:29;;;;;;;13.23;12.03;;;20.10;99.90;;;;;;5053142;28;20873;-70
2022/06/05 01:15:04;;;;;;;12.37;11.37;;;20.10;99.90;;;;;;5053288;28;20480;-70
2022/06/05 01:17:40;;;;;;;13.70;12.37;;;20.00;99.90;;;;;;5053147;28;20505;-70
2022/06/05 01:20:14;;;;;;;12.40;11.30;;;20.00;99.90;;;;;;5053184;28;20471;-70
2022/06/05 01:23:10;;;;;;;13.20;12.00;;;19.90;99.90;;;;;;5053053;28;20827;-70
2022/06/05 01:25:44;;;;;;;13.23;12.03;;;19.90;99.90;;;;;;5055567;28;20866;-70
2022/06/05 01:28:15;;;;;;;13.13;12.00;;;19.90;99.90;;;;;;5056964;28;20471;-70
2022/06/05 01:30:48;;;;;;;13.37;12.27;;;19.90;99.90;;;;;;5057060;28;20763;-70
2022/06/05 01:33:22;;;;;;;13.03;11.80;;;19.80;99.90;;;;;;5056863;28;20475;-70
2022/06/05 01:35:57;;;;;;;12.90;11.80;;;19.80;99.90;;;;;;5056995;28;20448;-70
2022/06/05 01:38:36;;;;;;;12.83;11.73;;;19.80;99.90;;;;;;5056882;28;20557;-70
2022/06/05 01:41:10;;;;;;;13.30;12.10;;;19.80;99.90;;;;;;5056625;28;20814;-70
2022/06/05 01:43:40;;;;;;;13.30;12.20;;;19.80;99.90;;;;;;5056682;28;20475;-70
2022/06/05 01:46:11;;;;;;;13.20;12.10;;;19.80;99.90;;;;;;5056771;28;20571;-70
2022/06/05 01:48:42;;;;;;;13.47;12.27;;;19.70;99.90;;;;;;5056580;28;20507;-70
2022/06/05 01:51:17;;;;;;;13.50;12.30;;;19.70;99.90;;;;;;5056429;28;20444;-70
2022/06/05 01:53:47;;;;;;;12.40;11.33;;;19.60;99.90;;;;;;5056157;28;20953;-70
2022/06/05 01:56:21;;;;;;;13.07;11.87;;;19.60;99.90;;;;;;5056724;28;20929;-70
2022/06/05 01:58:52;;;;;;;13.73;12.53;;;19.50;99.90;;;;;;5056342;28;20483;-70
2022/06/05 02:01:22;;;;;;;12.60;11.50;;;19.50;99.90;;;;;;5056545;28;20784;-70
2022/06/05 02:03:54;;;;;;;12.07;11.10;;;19.60;99.90;;;;;;5056058;28;20479;-70
2022/06/05 02:06:28;;;;;;;12.03;11.03;;;19.70;99.90;;;;;;5056314;28;20515;-70
2022/06/05 02:08:59;;;;;;;13.00;11.90;;;19.60;99.90;;;;;;5056064;28;21096;-70
2022/06/05 02:11:30;;;;;;;12.90;11.83;;;19.50;99.90;;;;;;5056313;28;20471;-70
2022/06/05 02:13:59;;;;;;;13.03;11.93;;;19.60;99.90;;;;;;5056070;28;20534;-70
2022/06/05 02:16:28;;;;;;;13.37;12.00;;;19.60;99.90;;;;;;5056146;28;20482;-70
2022/06/05 02:18:55;;;;;;;12.47;11.37;;;19.60;99.90;;;;;;5056106;28;20469;-70
2022/06/05 02:21:22;;;;;;;13.33;12.13;;;19.60;99.90;;;;;;5056071;28;20866;-70
2022/06/05 02:23:49;;;;;;;13.73;12.53;;;19.70;99.90;;;;;;5055884;28;20476;-70
2022/06/05 02:26:16;;;;;;;13.63;12.43;;;19.70;99.90;;;;;;5055915;28;20516;-70
2022/06/05 02:28:44;;;;;;;13.30;12.07;;;19.70;99.90;;;;;;5055668;28;21036;-70
2022/06/05 02:31:23;;;;;;;14.03;12.80;;;19.60;99.90;;;;;;5055872;28;20445;-70
2022/06/05 02:34:00;;;;;;;14.73;13.43;;;19.40;99.90;;;;;;5055507;28;20475;-70
2022/06/05 02:36:34;;;;;;;14.20;12.90;;;19.20;99.90;;;;;;5055498;28;20513;-70
2022/06/05 02:39:07;;;;;;;14.48;13.07;;;19.10;99.90;;;;;;5055465;28;21086;-70
2022/06/05 02:41:41;;;;;;;15.18;13.77;;;19.00;99.90;;;;;;5055746;28;20212;-70
2022/06/05 02:44:31;;;;;;;14.82;13.43;;;18.90;99.90;;;;;;5055328;28;20670;-70
2022/06/05 02:47:10;;;;;;;13.17;11.97;;;18.80;99.90;;;;;;5055463;28;20211;-70
2022/06/05 02:49:40;;;;;;;14.10;12.80;;;18.90;99.90;;;;;;5055438;28;20985;-70
2022/06/05 02:52:08;;;;;;;13.00;11.90;;;19.00;99.90;;;;;;5055314;28;20442;-70
2022/06/05 02:54:41;;;;;;;13.73;12.40;;;19.00;99.90;;;;;;5055160;28;20450;-70
2022/06/05 02:57:08;;;;;;;13.23;12.03;;;19.20;99.90;;;;;;5055516;28;20459;-70
2022/06/05 02:59:36;;;;;;;13.13;11.93;;;19.20;99.90;;;;;;5055330;28;20467;-70
2022/06/05 03:04:48;;;;;;;13.97;12.77;;;19.30;99.90;;;;;;5055268;28;20931;-70
2022/06/05 03:07:15;;;;;;;14.00;12.70;;;19.40;99.90;;;;;;5055149;28;20443;-70
2022/06/05 03:09:41;;;;;;;14.90;13.38;;;19.20;99.90;;;;;;5055164;28;20495;-70
2022/06/05 03:12:10;;;;;;;13.40;12.23;;;19.10;99.90;;;;;;5054801;28;20243;-69
2022/06/05 03:14:39;;;;;;;14.63;13.13;;;18.90;99.90;;;;;;5055052;28;20450;-70
2022/06/05 03:17:06;;;;;;;13.27;12.17;;;18.90;99.90;;;;;;5054744;28;20300;-70
2022/06/05 03:19:33;;;;;;;13.80;12.60;;;18.90;99.90;;;;;;5054939;28;20463;-70
2022/06/05 03:22:00;;;;;;;13.90;12.70;;;19.00;99.90;;;;;;5054895;28;20239;-70
2022/06/05 03:24:27;;;;;;;14.90;13.60;;;18.90;99.90;;;;;;5054716;28;20236;-70
2022/06/05 03:26:54;;;;;;;14.80;13.32;;;18.80;99.90;;;;;;5054792;28;20260;-70
2022/06/05 03:29:21;;;;;;;15.10;13.80;;;18.80;99.90;;;;;;5054713;28;20263;-70
2022/06/05 03:31:49;;;;;;;14.40;12.90;;;18.90;99.90;;;;;;5054686;28;20442;-70
2022/06/05 03:34:17;;;;;;;14.20;12.90;;;19.00;99.90;;;;;;5054619;28;20439;-70
2022/06/05 03:36:44;;;;;;;13.50;12.27;;;19.10;99.90;;;;;;5054662;28;20446;-70
2022/06/05 03:39:11;;;;;;;12.63;11.43;;;19.20;99.90;;;;;;5054854;28;20471;-70
2022/06/05 03:41:38;;;;;;;13.83;12.53;;;19.40;99.90;;;;;;5054614;28;20534;-70
2022/06/05 03:44:05;;;;;;;12.87;11.77;;;19.40;99.90;;;;;;5054074;28;20946;-70
2022/06/05 03:46:38;;;;;;;13.77;12.57;;;19.50;99.90;;;;;;5054052;28;20639;-70
2022/06/05 03:49:06;;;;;;;14.00;12.80;;;19.50;99.90;;;;;;5053919;28;20482;-70
2022/06/05 03:51:34;;;;;;;13.93;12.70;;;19.60;99.90;;;;;;5054344;28;20541;-70
2022/06/05 03:54:00;;;;;;;13.60;12.40;;;19.60;99.90;;;;;;5053722;28;20541;-70
2022/06/05 03:56:29;;;;;;;14.30;12.90;;;19.60;99.90;;;;;;5054180;28;20977;-70
2022/06/05 03:58:57;;;;;;;14.57;13.20;;;19.70;99.90;;;;;;5054211;28;20520;-70
2022/06/05 04:01:26;;;;;;;13.93;12.73;;;19.70;99.90;;;;;;5054207;28;20446;-70
2022/06/05 04:03:54;;;;;;;15.70;13.47;;;19.60;99.90;;;;;;5054004;28;20540;-70
2022/06/05 04:06:27;;;;;;;15.10;13.70;;;19.60;99.90;;;;;;5053979;28;20561;-70
2022/06/05 04:08:54;;;;;;;15.50;14.13;;;19.50;99.90;;;;;;5053838;28;20467;-70
2022/06/05 04:11:21;;;;;;;15.03;13.70;;;19.50;99.90;;;;;;5054014;28;20471;-70
2022/06/05 04:13:49;;;;;;;14.50;13.10;;;19.50;99.90;;;;;;5053791;28;20528;-70
2022/06/05 04:16:19;;;;;;;14.53;13.23;;;19.50;99.90;;;;;;5053964;28;20527;-70
2022/06/05 04:18:47;;;;;;;14.90;13.50;;;19.50;99.90;;;;;;5053730;28;20476;-70
2022/06/05 04:21:16;;;;;;;14.47;13.17;;;19.60;99.90;;;;;;5053628;28;20534;-70
2022/06/05 04:23:44;;;;;;;16.00;14.60;;;19.60;99.90;;;;;;5053349;28;20526;-70
2022/06/05 04:26:13;;;;;;;15.10;13.80;;;19.60;99.90;;;;;;5053454;28;20574;-70
2022/06/05 04:28:41;;;;;;;16.70;14.97;;;19.50;99.90;;;;;;5053425;28;20460;-70
2022/06/05 04:31:18;;;;;;;15.75;14.25;;;19.30;99.90;;;;;;5053780;28;20539;-70
2022/06/05 04:33:45;;;;;;;16.52;15.05;;;19.10;99.90;;;;;;5053266;28;20215;-70
2022/06/05 04:36:12;;;;;;;15.30;13.90;;;19.00;99.90;;;;;;5053538;28;20559;-70
2022/06/05 04:38:39;;;;;;;15.70;14.30;;;19.00;99.90;;;;;;5053583;28;20315;-70
2022/06/05 04:41:07;;;;;;;16.00;14.50;;;19.10;99.90;;;;;;5053377;28;20754;-70
2022/06/05 04:43:34;;;;;;;16.80;15.30;;;19.20;99.90;;;;;;5053365;28;20532;-70
2022/06/05 04:46:01;;;;;;;15.93;14.53;;;19.20;99.90;;;;;;5053351;28;20481;-70
2022/06/05 04:48:28;;;;;;;16.97;15.27;;;19.30;99.90;;;;;;5053274;28;20567;-70
2022/06/05 04:50:54;;;;;;;16.90;15.40;;;19.30;99.90;;;;;;5053494;28;20843;-70
2022/06/05 04:53:21;;;;;;;16.50;15.00;;;19.20;99.90;;;;;;5053244;28;20542;-70
2022/06/05 04:55:48;;;;;;;17.23;15.60;;;19.20;99.90;;;;;;5053438;28;20531;-70
2022/06/05 04:58:16;;;;;;;17.37;15.80;;;19.30;99.90;;;;;;5053561;28;20562;-70
2022/06/05 05:00:43;;;;;;;16.10;14.60;;;19.30;99.90;;;;;;5057349;28;20450;-70
2022/06/05 05:03:10;;;;;;;16.33;14.63;;;19.30;99.90;;;;;;5057167;28;20543;-70
2022/06/05 05:05:37;;;;;;;16.47;14.97;;;19.30;99.90;;;;;;5057403;28;20483;-70
2022/06/05 05:08:05;;;;;;;18.23;16.50;;;19.30;99.90;;;;;;5057360;28;20629;-70
2022/06/05 05:10:32;;;;;;;18.50;16.70;;;19.30;99.90;;;;;;5057460;28;20521;-70
2022/06/05 05:12:59;;;;;;;18.33;16.37;;;19.30;99.90;;;;;;5057109;28;20546;-70
2022/06/05 05:15:27;;;;;;;17.63;16.03;;;19.30;99.90;;;;;;5057330;28;20449;-70
2022/06/05 05:17:54;;;;;;;20.27;18.27;;;19.30;99.90;;;;;;5057118;28;20448;-70
2022/06/05 05:20:21;;;;;;;19.03;17.23;;;19.10;99.90;;;;;;5057287;28;20534;-70
2022/06/05 05:22:47;;;;;;;19.00;17.20;;;19.10;99.90;;;;;;5056971;28;20447;-70
2022/06/05 05:25:14;;;;;;;19.20;17.40;;;19.10;99.90;;;;;;5057141;28;20527;-70
2022/06/05 05:27:41;;;;;;;19.60;17.67;;;19.10;99.90;;;;;;5057052;28;20560;-70
2022/06/05 05:30:10;;;;;;;23.20;20.93;;;19.10;99.90;;;;;;5057012;28;20566;-70
2022/06/05 05:32:39;;;;;;;19.20;17.30;;;19.10;99.90;;;;;;5056597;28;20952;-70
2022/06/05 05:35:07;;;;;;;19.37;17.63;;;19.10;99.90;;;;;;5056766;28;20454;-70
2022/06/05 05:37:34;;;;;;;19.57;17.63;;;19.10;99.90;;;;;;5056918;28;20526;-70
2022/06/05 05:42:45;;;;;;;17.60;15.90;;;19.10;99.90;;;;;;5056599;28;20514;-70
2022/06/05 05:45:12;;;;;;;19.77;17.80;;;19.00;99.90;;;;;;5056800;28;20505;-70
2022/06/05 05:47:40;;;;;;;19.52;17.63;;;19.00;99.90;;;;;;5056676;28;20328;-70
2022/06/05 05:50:11;;;;;;;23.73;17.37;;;19.00;99.90;;;;;;5056684;28;20315;-70
2022/06/05 05:52:38;;;;;;;19.83;17.87;;;19.00;99.90;;;;;;5056299;28;20455;-70
2022/06/05 05:55:07;;;;;;;20.20;18.20;;;19.10;99.90;;;;;;5056607;28;20522;-70
2022/06/05 05:57:34;;;;;;;20.97;18.97;;;19.00;99.90;;;;;;5056520;28;20490;-70
2022/06/05 06:00:01;;;;;;;21.43;19.23;;;19.10;99.90;;;;;;5056478;28;20895;-70
2022/06/05 06:02:28;;;;;;;20.25;18.23;;;19.10;99.90;;;;;;5056261;28;20855;-70
2022/06/05 06:04:56;;;;;;;19.23;17.23;;;19.00;99.90;;;;;;5056411;28;20291;-70
2022/06/05 06:07:23;;;;;;;21.80;19.48;;;19.00;99.90;;;;;;5056259;28;20485;-70
2022/06/05 06:09:50;;;;;;;22.08;19.98;;;18.90;99.90;;;;;;5055668;28;20319;-70
2022/06/05 06:12:17;;;;;;;21.42;19.17;;;18.60;99.90;;;;;;5055731;28;20294;-70
2022/06/05 06:14:43;;;;;;;22.48;20.08;;;18.60;99.90;;;;;;5056246;28;20293;-70
2022/06/05 06:17:10;;;;;;;20.73;18.60;;;18.60;99.90;;;;;;5056014;28;20673;-70
2022/06/05 06:19:37;;;;;;;18.80;17.00;;;18.60;99.90;;;;;;5056081;28;20645;-70
2022/06/05 06:22:06;;;;;;;20.88;17.30;;;18.60;99.90;;;;;;5056039;28;20292;-70
2022/06/05 06:24:33;;;;;;;19.13;16.13;;;18.50;99.90;;;;;;5055951;28;20627;-70
2022/06/05 06:27:00;;;;;;;17.60;15.63;;;18.50;99.90;;;;;;5055886;28;20478;-70
2022/06/05 06:29:27;;;;;;;16.20;14.50;;;18.50;99.90;;;;;;5055633;28;20552;-70
2022/06/05 06:31:54;;;;;;;14.65;13.15;;;18.50;99.90;;;;;;5055788;28;20290;-70
2022/06/05 06:34:20;;;;;;;16.48;14.55;;;18.40;99.90;;;;;;5055699;28;20302;-70
2022/06/05 06:36:47;;;;;;;16.60;15.00;;;18.40;99.90;;;;;;5055750;28;20295;-70
2022/06/05 06:39:16;;;;;;;16.95;15.15;;;18.40;99.90;;;;;;5055785;28;20894;-71
2022/06/05 06:41:42;;;;;;;16.37;14.77;;;18.40;99.90;;;;;;5055478;28;20733;-70
2022/06/05 06:44:09;;;;;;;13.13;11.82;;;18.40;99.90;;;;;;5055493;28;20529;-70
2022/06/05 06:46:37;;;;;;;16.67;14.88;;;18.40;99.90;;;;;;5055464;28;20215;-70
2022/06/05 06:49:03;;;;;;;11.85;10.38;;;18.50;99.90;;;;;;5055385;28;20224;-70
2022/06/05 06:51:30;;;;;;;11.80;10.38;;;18.40;99.90;;;;;;5055551;28;20310;-70
2022/06/05 06:53:57;;;;;;;10.03;8.83;;;18.40;99.90;;;;;;5055071;28;20300;-70
2022/06/05 06:56:28;;;;;;;9.52;8.63;;;18.50;99.90;;;;;;5055341;28;20518;-70
2022/06/05 06:58:56;;;;;;;9.65;8.65;;;18.50;99.90;;;;;;5055376;28;20232;-70
2022/06/05 07:01:22;;;;;;;8.43;7.45;;;18.50;99.90;;;;;;5055424;28;20210;-70
2022/06/05 07:03:49;;;;;;;8.85;8.00;;;18.50;99.90;;;;;;5054953;28;20215;-70
2022/06/05 07:06:17;;;;;;;8.77;7.65;;;18.40;99.90;;;;;;5055150;28;20231;-70
2022/06/05 07:08:45;;;;;;;8.32;7.13;;;18.40;99.90;;;;;;5055219;28;20232;-70
2022/06/05 07:11:14;;;;;;;10.13;6.72;;;18.40;99.90;;;;;;5055192;28;20291;-70
2022/06/05 07:13:43;;;;;;;7.20;6.60;;;18.40;99.90;;;;;;5054855;28;20296;-70
2022/06/05 07:16:11;;;;;;;7.78;6.97;;;18.40;99.90;;;;;;5055014;28;20223;-70
2022/06/05 07:18:39;;;;;;;7.68;6.95;;;18.50;99.90;;;;;;5054851;28;20319;-70
2022/06/05 07:21:11;;;;;;;8.57;6.10;;;18.40;99.90;;;;;;5055031;28;20302;-70
2022/06/05 07:23:38;;;;;;;6.38;5.78;;;18.40;99.90;;;;;;5053732;28;20295;-70
2022/06/05 07:26:08;;;;;;;6.43;5.82;;;18.40;99.90;;;;;;5054826;28;20294;-70
2022/06/05 07:28:35;;;;;;;8.23;7.60;;;18.40;99.90;;;;;;5054795;28;20235;-70
2022/06/05 07:31:05;;;;;;;8.27;7.40;;;18.30;99.90;;;;;;5054506;28;20533;-70
2022/06/05 07:33:33;;;;;;;16.20;14.27;;;18.40;99.90;;;;;;5054568;28;20212;-70
2022/06/05 07:36:03;;;;;;;7.80;7.15;;;18.40;99.90;;;;;;5054688;28;20575;-70
2022/06/05 07:38:32;;;;;;;7.80;6.93;;;18.40;99.90;;;;;;5054587;28;20228;-70
2022/06/05 07:40:59;;;;;;;7.40;6.80;;;18.50;99.90;;;;;;5054368;28;20214;-70
2022/06/05 07:43:26;;;;;;;7.53;6.85;;;18.50;99.90;;;;;;5054204;28;20309;-70
2022/06/05 07:45:53;;;;;;;7.80;7.03;;;18.60;99.90;;;;;;5054461;28;20230;-70
2022/06/05 07:48:21;;;;;;;7.83;7.13;;;18.50;99.90;;;;;;5054227;28;20338;-70
2022/06/05 07:56:17;;;;;;;6.30;5.80;;;18.50;99.90;;;;;;5054332;28;20200;-70
2022/06/05 07:58:44;;;;;;;6.80;6.20;;;18.60;99.90;;;;;;5053970;28;20306;-70
2022/06/05 08:01:11;;;;;;;6.20;5.60;;;18.70;99.90;;;;;;5054036;28;20236;-70
2022/06/05 08:03:39;;;;;;;6.30;5.70;;;18.70;99.90;;;;;;5053878;28;20291;-70
2022/06/05 08:06:07;;;;;;;6.03;5.43;;;18.80;99.90;;;;;;5053960;28;20537;-70
2022/06/05 08:08:35;;;;;;;7.70;6.87;;;18.70;99.90;;;;;;5054004;28;20554;-70
2022/06/05 08:11:05;;;;;;;7.03;6.32;;;18.60;99.90;;;;;;5054053;28;20462;-70
2022/06/05 08:13:32;;;;;;;8.05;7.25;;;18.50;99.90;;;;;;5053862;28;20207;-70
2022/06/05 08:16:00;;;;;;;7.70;7.00;;;18.50;99.90;;;;;;5053998;28;20287;-70
2022/06/05 08:18:26;;;;;;;7.72;6.50;;;18.60;99.90;;;;;;5053761;28;20544;-70
2022/06/05 08:20:55;;;;;;;7.20;6.50;;;18.70;99.90;;;;;;5053997;28;20595;-70
2022/06/05 08:23:22;;;;;;;6.63;6.13;;;18.80;99.90;;;;;;5053527;28;20290;-70
2022/06/05 08:25:49;;;;;;;6.93;6.10;;;18.90;99.90;;;;;;5053873;28;20469;-70
2022/06/05 08:28:16;;;;;;;6.60;6.03;;;19.00;99.90;;;;;;5053657;28;20231;-70
2022/06/05 08:30:43;;;;;;;7.10;6.40;;;19.10;99.90;;;;;;5053501;28;20452;-70
2022/06/05 08:33:11;;;;;;;5.80;5.40;;;19.30;99.90;;;;;;5053005;28;20489;-70
2022/06/05 08:35:38;;;;;;;5.90;5.33;;;19.40;99.90;;;;;;5053628;28;20444;-70
2022/06/05 08:43:56;;;;;;;4.87;4.47;;;20.00;99.90;;;;;;5053313;28;20432;-70
2022/06/05 08:46:27;;;;;;;5.20;4.70;;;20.20;99.90;;;;;;5053431;28;20927;-70
2022/06/05 08:48:59;;;;;;;4.33;3.93;;;20.20;99.90;;;;;;5053240;28;20542;-70
2022/06/05 08:51:41;;;;;;;3.90;3.70;;;20.40;99.90;;;;;;5053540;28;20539;-70
2022/06/05 08:54:14;;;;;;;3.40;3.20;;;20.50;99.90;;;;;;5052981;28;20461;-70
2022/06/05 08:56:46;;;;;;;3.70;3.40;;;20.70;99.90;;;;;;5053469;28;20491;-70
2022/06/05 08:59:19;;;;;;;3.37;3.17;;;21.10;99.90;;;;;;5053386;28;20549;-70
2022/06/05 09:01:55;;;;;;;4.00;3.10;;;21.50;99.90;;;;;;5053473;28;20546;-70
2022/06/05 09:04:45;;;;;;;3.33;3.03;;;22.20;99.90;;;;;;5053257;28;20478;-70
2022/06/05 09:07:15;;;;;;;3.20;3.00;;;22.70;99.90;;;;;;5052994;28;20483;-70
2022/06/05 09:09:49;;;;;;;3.40;3.20;;;22.90;99.90;;;;;;5053057;28;21068;-70
2022/06/05 09:12:26;;;;;;;3.30;2.90;;;22.80;99.90;;;;;;5053028;28;20972;-70
2022/06/05 09:14:59;;;;;;;3.07;2.87;;;22.60;99.90;;;;;;5053351;28;20529;-70
2022/06/05 09:17:27;;;;;;;2.70;2.50;;;22.50;99.90;;;;;;5053238;28;20532;-70
2022/06/05 09:19:57;;;;;;;3.70;3.43;;;22.30;99.90;;;;;;5052936;28;21050;-70
2022/06/05 09:22:33;;;;;;;3.20;3.00;;;22.10;99.90;;;;;;5053018;28;20461;-70
2022/06/05 09:25:32;;;;;;;3.00;2.80;;;22.00;99.90;;;;;;5053257;28;20788;-70
2022/06/05 09:28:15;;;;;;;3.40;3.07;;;22.00;99.90;;;;;;5053023;28;20513;-70
2022/06/05 09:30:48;;;;;;;3.27;3.03;;;22.00;99.90;;;;;;5053261;28;20487;-70
2022/06/05 09:33:20;;;;;;;3.27;3.00;;;21.90;99.90;;;;;;5053043;28;20458;-70
2022/06/05 09:35:51;;;;;;;2.20;2.10;;;21.90;99.90;;;;;;5053134;28;20434;-70
2022/06/05 09:38:24;;;;;;;3.23;2.50;;;21.90;99.90;;;;;;5053065;28;20530;-70
2022/06/05 09:41:07;;;;;;;4.73;2.80;;;21.90;99.90;;;;;;5052971;28;20946;-70
2022/06/05 09:43:47;;;;;;;2.83;2.63;;;22.00;99.90;;;;;;5052917;28;20532;-70
2022/06/05 09:46:40;;;;;;;3.20;2.90;;;22.20;99.90;;;;;;5054764;28;20451;-70
2022/06/05 09:49:16;;;;;;;3.27;2.67;;;22.00;99.90;;;;;;5056760;28;20462;-70
2022/06/05 09:51:45;;;;;;;5.17;2.90;;;22.00;99.90;;;;;;5056583;28;20563;-70
2022/06/05 09:54:20;;;;;;;3.13;2.83;;;22.00;99.90;;;;;;5056364;28;20459;-70
2022/06/05 09:59:51;;;;;;;2.67;2.47;;;21.80;99.90;;;;;;5056528;28;20445;-70
2022/06/05 10:02:21;;;;;;;2.60;2.50;;;21.70;99.90;;;;;;5056374;28;20438;-71
2022/06/05 10:04:49;;;;;;;2.13;2.03;;;21.90;99.90;;;;;;5056478;28;20862;-70
2022/06/05 10:07:20;;;;;;;2.30;2.10;;;22.10;99.90;;;;;;5056240;28;20504;-70
2022/06/05 10:09:47;;;;;;;2.37;2.27;;;22.10;99.90;;;;;;5056485;28;20553;-70
2022/06/05 10:12:23;;;;;;;2.93;2.27;;;22.30;99.90;;;;;;5056156;28;20867;-70
2022/06/05 10:14:55;;;;;;;2.30;2.13;;;22.30;99.90;;;;;;5056315;28;20468;-70
2022/06/05 10:17:42;;;;;;;7.53;2.40;;;22.50;99.90;;;;;;5056266;28;20689;-70
2022/06/05 10:20:36;;;;;;;2.90;2.70;;;22.70;99.90;;;;;;5056182;28;20593;-70
2022/06/05 10:23:14;;;;;;;5.53;2.77;;;22.60;99.90;;;;;;5055654;28;20447;-70
2022/06/05 10:25:48;;;;;;;3.30;2.60;;;22.60;99.90;;;;;;5056029;28;20530;-70
2022/06/05 10:28:20;;;;;;;3.70;2.50;;;22.50;99.90;;;;;;5055958;28;20578;-70
2022/06/05 10:30:57;;;;;;;2.83;2.63;;;22.40;99.90;;;;;;5056054;28;20801;-70
2022/06/05 10:33:38;;;;;;;3.60;2.70;;;22.30;99.90;;;;;;5055619;28;20532;-70
2022/06/05 10:36:14;;;;;;;2.80;2.60;;;22.10;99.90;;;;;;5055896;28;20557;-70
2022/06/05 10:38:47;;;;;;;3.33;2.60;;;22.10;99.90;;;;;;5055725;28;20461;-70
2022/06/05 10:41:22;;;;;;;3.27;3.07;;;21.90;99.90;;;;;;5055891;28;20446;-70
2022/06/05 10:44:10;;;;;;;5.10;4.60;;;21.90;99.90;;;;;;5055450;28;21027;-70
2022/06/05 10:46:45;;;;;;;3.67;3.37;;;21.80;99.90;;;;;;5055531;28;20536;-70
2022/06/05 10:49:17;;;;;;;4.10;3.80;;;21.50;99.90;;;;;;5055590;28;20484;-70
2022/06/05 10:51:53;;;;;;;4.80;4.00;;;21.30;99.90;;;;;;5055534;28;20445;-70
2022/06/05 10:54:28;;;;;;;5.90;5.30;;;21.20;99.90;;;;;;5055213;28;20541;-70
2022/06/05 10:57:02;;;;;;;5.93;5.33;;;21.00;99.90;;;;;;5055333;28;20799;-70
2022/06/05 10:59:43;;;;;;;6.00;5.50;;;20.90;99.90;;;;;;5055348;28;20552;-70
2022/06/05 11:02:50;;;;;;;6.80;6.20;;;20.80;99.90;;;;;;5055280;28;20811;-71
2022/06/05 11:05:38;;;;;;;7.73;7.03;;;20.70;99.90;;;;;;5054744;28;20579;-70
2022/06/05 11:08:23;;;;;;;7.80;7.20;;;20.60;99.90;;;;;;5054935;28;20470;-70
2022/06/05 11:14:08;;;;;;;8.10;7.40;;;20.60;99.90;;;;;;5054894;28;20583;-70
2022/06/05 11:16:44;;;;;;;7.37;6.70;;;20.70;99.90;;;;;;5055123;28;20533;-70
2022/06/05 11:19:17;;;;;;;7.70;6.80;;;20.70;99.90;;;;;;5055111;28;20880;-70
2022/06/05 11:21:48;;;;;;;7.20;6.63;;;20.70;99.90;;;;;;5055014;28;20500;-70
2022/06/05 11:24:22;;;;;;;7.70;7.10;;;20.60;99.90;;;;;;5054823;28;20533;-70
2022/06/05 11:26:59;;;;;;;7.50;6.80;;;20.50;99.90;;;;;;5054978;28;20528;-70
2022/06/05 11:29:32;;;;;;;7.70;7.10;;;20.50;99.90;;;;;;5054840;28;20602;-70
2022/06/05 11:32:18;;;;;;;8.13;6.40;;;20.30;99.90;;;;;;5054889;28;20446;-70
2022/06/05 11:34:53;;;;;;;7.17;6.50;;;20.30;99.90;;;;;;5054734;28;21034;-70
2022/06/05 11:37:39;;;;;;;6.57;6.03;;;20.40;99.90;;;;;;5054838;28;20467;-71
2022/06/05 11:40:19;;;;;;;7.53;6.80;;;20.30;99.90;;;;;;5054682;28;20554;-70
2022/06/05 11:42:51;;;;;;;6.83;6.23;;;20.30;99.90;;;;;;5054280;28;20460;-70
2022/06/05 11:45:42;;;;;;;8.40;6.37;;;20.50;99.90;;;;;;5054531;28;20858;-70
2022/06/05 11:48:16;;;;;;;8.03;6.87;;;20.50;99.90;;;;;;5054412;28;20571;-70
2022/06/05 11:50:49;;;;;;;7.73;6.93;;;20.60;99.90;;;;;;5054550;28;20524;-70
2022/06/05 11:53:23;;;;;;;7.93;6.63;;;20.70;99.90;;;;;;5054061;28;20552;-70
2022/06/05 11:55:56;;;;;;;7.03;6.30;;;21.00;99.90;;;;;;5054126;28;20547;-70
2022/06/05 11:58:29;;;;;;;7.37;6.50;;;21.40;99.90;;;;;;5053998;28;20501;-70
2022/06/05 12:01:00;;;;;;;6.17;5.57;;;21.80;99.90;;;;;;5054368;28;20536;-70
2022/06/05 12:03:34;;;;;;;7.57;6.90;;;22.20;99.90;;;;;;5053999;28;20450;-70
2022/06/05 12:06:09;;;;;;;9.67;5.63;;;22.60;99.90;;;;;;5054185;28;20546;-70
2022/06/05 12:08:39;;;;;;;5.97;5.37;;;22.90;99.90;;;;;;5053553;28;20573;-71
2022/06/05 12:11:09;;;;;;;4.70;4.40;;;23.10;99.90;;;;;;5053964;28;20448;-70
2022/06/05 12:13:45;;;;;;;4.50;4.10;;;23.30;99.90;;;;;;5053785;28;20537;-70
2022/06/05 12:16:18;;;;;;;4.83;4.43;;;23.40;99.90;;;;;;5054042;28;20784;-70
2022/06/05 12:18:53;;;;;;;4.57;4.10;;;23.40;99.90;;;;;;5053641;28;20471;-70
2022/06/05 12:21:25;;;;;;;4.80;4.40;;;23.50;99.90;;;;;;5053978;28;20447;-70
2022/06/05 12:24:00;;;;;;;4.00;3.70;;;23.70;99.90;;;;;;5053751;28;20527;-70
2022/06/05 12:26:39;;;;;;;6.10;3.40;;;23.70;99.90;;;;;;5053809;28;21034;-70
2022/06/05 12:29:13;;;;;;;3.80;3.40;;;23.60;99.90;;;;;;5053493;28;21081;-71
2022/06/05 12:31:48;;;;;;;4.10;3.70;;;23.70;99.90;;;;;;5053798;28;20536;-70
2022/06/05 12:34:19;;;;;;;4.43;3.37;;;23.70;99.90;;;;;;5053606;28;20455;-70
2022/06/05 12:36:51;;;;;;;3.70;3.40;;;23.70;99.90;;;;;;5053737;28;20440;-70
2022/06/05 12:39:23;;;;;;;3.97;3.67;;;23.60;99.90;;;;;;5053846;28;20475;-71
2022/06/05 12:42:02;;;;;;;4.57;3.23;;;23.40;99.90;;;;;;5053833;28;20538;-71
2022/06/05 12:44:32;;;;;;;6.17;4.37;;;23.30;99.90;;;;;;5053471;28;20478;-70
2022/06/05 12:47:06;;;;;;;5.37;4.87;;;23.30;99.90;;;;;;5053837;28;20811;-70
2022/06/05 12:49:53;;;;;;;4.27;3.90;;;23.30;99.90;;;;;;5053401;28;20570;-70
2022/06/05 12:52:33;;;;;;;4.77;4.10;;;23.40;99.90;;;;;;5053470;28;20977;-70
2022/06/05 12:55:06;;;;;;;6.17;5.10;;;23.60;99.90;;;;;;5053621;28;20528;-70
2022/06/05 12:57:49;;;;;;;4.60;4.20;;;23.80;99.90;;;;;;5053387;28;20984;-70
2022/06/05 13:00:21;;;;;;;5.80;4.00;;;23.90;99.90;;;;;;5053417;28;20883;-70
2022/06/05 13:02:56;;;;;;;4.30;3.90;;;24.00;99.90;;;;;;5053045;28;20532;-70
2022/06/05 13:05:32;;;;;;;5.60;3.90;;;23.90;99.90;;;;;;5053391;28;20471;-70
2022/06/05 13:08:04;;;;;;;4.60;3.70;;;23.80;99.90;;;;;;5053078;28;20483;-70
2022/06/05 13:10:36;;;;;;;6.20;3.77;;;23.90;99.90;;;;;;5053479;28;20495;-71
2022/06/05 13:13:31;;;;;;;5.87;3.90;;;23.90;99.90;;;;;;5053162;28;21005;-71
2022/06/05 13:16:02;;;;;;;4.53;4.13;;;24.10;99.90;;;;;;5039829;28;20946;-71
2022/06/05 13:18:38;;;;;;;3.87;3.57;;;24.10;99.90;;;;;;5053214;28;20465;-71
2022/06/05 13:21:15;;;;;;;3.47;3.17;;;24.10;99.90;;;;;;5055067;28;20547;-70